Time;durP1;ratioP1;P1;durP2;ratioP2;P2;SDS_P1;SDS_P2;PMS_P1;PMS_P2;Temp;Humidity;BMP_temperature;BMP_pressure;BME280_temperature;BME280_humidity;BME280_pressure;Samples;Min_cycle;Max_cycle;Signal;HPM_P1;HPM_P2
2022/05/11 00:01:13;;;;;;;9.40;8.50;;;;;;;;;;6230442;23;20475;-56
2022/05/11 00:03:39;;;;;;;8.73;7.93;;;;;;;;;;6237700;23;20776;-56
2022/05/11 00:06:26;;;;;;;8.87;7.93;;;;;;;;;;6227524;23;20428;-56
2022/05/11 00:08:55;;;;;;;8.47;7.57;;;;;;;;;;6236636;22;20701;-56
2022/05/11 00:11:53;;;;;;;9.50;7.67;;;;;;;;;;6230668;23;20383;-56
2022/05/11 00:14:22;;;;;;;9.03;7.17;;;;;;;;;;6234732;22;20767;-55
2022/05/11 00:16:48;;;;;;;8.07;7.27;;;;;;;;;;6231185;23;20469;-56
2022/05/11 00:19:16;;;;;;;9.87;7.13;;;;;;;;;;6235592;23;20386;-56
2022/05/11 00:21:43;;;;;;;8.80;7.90;;;;;;;;;;6225403;23;20921;-55
2022/05/11 00:24:10;;;;;;;8.90;7.53;;;;;;;;;;6235441;23;20449;-55
2022/05/11 00:26:36;;;;;;;8.33;7.53;;;;;;;;;;6219845;22;20378;-56
2022/05/11 00:29:02;;;;;;;8.10;7.17;;;;;;;;;;6235967;23;20444;-55
2022/05/11 00:31:28;;;;;;;9.57;7.67;;;;;;;;;;6219651;23;20378;-55
2022/05/11 00:33:54;;;;;;;8.40;7.60;;;;;;;;;;6236436;23;20444;-56
2022/05/11 00:36:26;;;;;;;9.27;7.97;;;;;;;;;;6224318;22;20764;-56
2022/05/11 00:38:56;;;;;;;7.67;6.83;;;;;;;;;;6236606;22;20419;-55
2022/05/11 00:41:59;;;;;;;12.00;8.30;;;;;;;;;;6227040;23;20377;-55
2022/05/11 00:44:28;;;;;;;7.50;6.70;;;;;;;;;;6235624;23;20381;-55
2022/05/11 00:46:57;;;;;;;8.33;7.53;;;;;;;;;;6229227;23;20904;-55
2022/05/11 00:49:34;;;;;;;10.63;7.17;;;;;;;;;;6238490;23;20381;-56
2022/05/11 00:52:03;;;;;;;9.47;8.50;;;;;;;;;;6232548;23;21125;-55
2022/05/11 00:54:31;;;;;;;8.00;7.20;;;;;;;;;;6238463;23;20377;-55
2022/05/11 00:57:00;;;;;;;8.70;7.73;;;;;;;;;;6218104;23;20413;-56
2022/05/11 00:59:27;;;;;;;9.63;6.90;;;;;;;;;;6241157;22;20465;-55
2022/05/11 01:01:53;;;;;;;8.40;7.10;;;;;;;;;;6223882;23;20380;-55
2022/05/11 01:04:20;;;;;;;8.27;7.37;;;;;;;;;;6239884;23;20771;-55
2022/05/11 01:06:46;;;;;;;7.73;7.00;;;;;;;;;;6224374;23;20727;-55
2022/05/11 01:09:12;;;;;;;7.83;7.00;;;;;;;;;;6213884;23;20397;-55
2022/05/11 01:11:42;;;;;;;8.00;7.20;;;;;;;;;;6234893;23;20370;-54
2022/05/11 01:14:10;;;;;;;7.53;6.83;;;;;;;;;;6239389;23;20374;-55
2022/05/11 01:16:37;;;;;;;6.70;6.00;;;;;;;;;;6214569;23;20721;-55
2022/05/11 01:19:03;;;;;;;9.80;6.97;;;;;;;;;;6241174;23;20412;-55
2022/05/11 01:21:37;;;;;;;7.37;6.47;;;;;;;;;;6210569;23;20394;-55
2022/05/11 01:24:04;;;;;;;7.67;6.90;;;;;;;;;;6240992;23;20454;-55
2022/05/11 01:26:42;;;;;;;8.30;6.60;;;;;;;;;;6224264;23;20390;-55
2022/05/11 01:29:07;;;;;;;8.50;7.10;;;;;;;;;;6241339;23;20386;-54
2022/05/11 01:31:33;;;;;;;7.27;6.53;;;;;;;;;;6223214;23;20389;-54
2022/05/11 01:33:59;;;;;;;8.20;7.40;;;;;;;;;;6239484;23;20477;-54
2022/05/11 01:36:32;;;;;;;7.67;6.60;;;;;;;;;;6226068;23;20373;-55
2022/05/11 01:39:00;;;;;;;7.50;6.73;;;;;;;;;;6239199;23;20226;-55
2022/05/11 01:41:35;;;;;;;7.50;6.80;;;;;;;;;;6221158;23;20392;-54
2022/05/11 01:44:02;;;;;;;7.40;6.60;;;;;;;;;;6237140;23;20443;-56
2022/05/11 01:46:34;;;;;;;7.73;7.03;;;;;;;;;;6212948;23;20555;-56
2022/05/11 01:49:03;;;;;;;8.50;6.90;;;;;;;;;;6236778;23;20489;-55
2022/05/11 01:51:30;;;;;;;8.20;6.67;;;;;;;;;;6237029;23;20406;-55
2022/05/11 01:53:56;;;;;;;7.40;6.60;;;;;;;;;;6235870;23;20373;-55
2022/05/11 01:56:55;;;;;;;7.07;6.37;;;;;;;;;;6211253;23;20489;-56
2022/05/11 01:59:28;;;;;;;7.60;6.90;;;;;;;;;;6235309;23;20819;-55
2022/05/11 02:02:05;;;;;;;7.07;6.37;;;;;;;;;;6223654;23;20519;-55
2022/05/11 02:10:05;;;;;;;6.33;5.40;;;;;;;;;;6239074;23;20374;-55
2022/05/11 02:12:31;;;;;;;5.40;4.90;;;;;;;;;;6219485;23;20409;-56
2022/05/11 02:14:58;;;;;;;6.83;6.23;;;;;;;;;;6239615;23;20378;-55
2022/05/11 02:20:28;;;;;;;6.73;5.87;;;;;;;;;;6231072;23;20794;-55
2022/05/11 02:22:55;;;;;;;5.83;5.27;;;;;;;;;;6224622;23;20428;-55
2022/05/11 02:25:21;;;;;;;6.50;5.67;;;;;;;;;;6237675;23;20390;-56
2022/05/11 02:27:48;;;;;;;7.43;6.73;;;;;;;;;;6219823;23;20430;-55
2022/05/11 02:30:16;;;;;;;5.97;5.37;;;;;;;;;;6240903;23;20366;-54
2022/05/11 02:32:42;;;;;;;7.73;6.43;;;;;;;;;;6232987;23;20843;-55
2022/05/11 02:35:14;;;;;;;7.23;6.53;;;;;;;;;;6237507;23;20386;-56
2022/05/11 02:37:47;;;;;;;7.10;5.00;;;;;;;;;;6223784;23;20394;-55
2022/05/11 02:40:14;;;;;;;7.30;6.27;;;;;;;;;;6223144;23;20377;-59
2022/05/11 02:42:41;;;;;;;6.30;5.67;;;;;;;;;;6238272;22;20477;-55
2022/05/11 02:45:07;;;;;;;7.20;5.90;;;;;;;;;;6223434;23;20422;-56
2022/05/11 02:47:33;;;;;;;4.83;4.43;;;;;;;;;;6236302;23;20653;-56
2022/05/11 02:50:07;;;;;;;5.93;5.33;;;;;;;;;;6207144;23;20696;-55
2022/05/11 02:52:36;;;;;;;6.93;6.13;;;;;;;;;;6238703;22;20418;-54
2022/05/11 02:55:03;;;;;;;6.67;6.00;;;;;;;;;;6231640;23;20378;-55
2022/05/11 02:57:29;;;;;;;11.23;6.27;;;;;;;;;;6237848;23;20919;-56
2022/05/11 02:59:55;;;;;;;6.00;5.40;;;;;;;;;;6224630;23;20366;-55
2022/05/11 03:02:22;;;;;;;6.67;5.30;;;;;;;;;;6238682;23;20528;-55
2022/05/11 03:04:49;;;;;;;6.60;5.77;;;;;;;;;;6234202;23;20560;-55
2022/05/11 03:07:15;;;;;;;9.87;6.83;;;;;;;;;;6237401;23;20452;-55
2022/05/11 03:09:41;;;;;;;6.90;6.20;;;;;;;;;;6221948;23;20569;-55
2022/05/11 03:12:07;;;;;;;6.90;6.20;;;;;;;;;;6236830;23;20382;-56
2022/05/11 03:14:33;;;;;;;6.73;6.03;;;;;;;;;;6233504;23;20665;-56
2022/05/11 03:16:59;;;;;;;10.33;8.17;;;;;;;;;;6239532;23;20595;-56
2022/05/11 03:20:14;;;;;;;8.17;7.23;;;;;;;;;;6229017;23;20471;-53
2022/05/11 03:22:48;;;;;;;7.23;6.50;;;;;;;;;;6233487;23;20395;-54
2022/05/11 03:25:14;;;;;;;7.83;6.80;;;;;;;;;;6232289;23;20382;-55
2022/05/11 03:27:40;;;;;;;7.40;6.60;;;;;;;;;;6237492;23;20986;-55
2022/05/11 03:30:07;;;;;;;8.00;6.47;;;;;;;;;;6234921;23;20370;-55
2022/05/11 03:35:17;;;;;;;7.43;6.33;;;;;;;;;;6234747;23;20373;-55
2022/05/11 03:37:43;;;;;;;8.20;6.30;;;;;;;;;;6238869;23;20410;-56
2022/05/11 03:40:09;;;;;;;7.97;7.20;;;;;;;;;;6222832;23;20401;-57
2022/05/11 03:42:36;;;;;;;6.20;5.60;;;;;;;;;;6237599;23;20154;-57
2022/05/11 03:45:06;;;;;;;6.33;5.50;;;;;;;;;;6198765;23;20656;-57
2022/05/11 03:47:32;;;;;;;6.80;6.20;;;;;;;;;;6239346;23;21144;-56
2022/05/11 03:49:58;;;;;;;7.93;7.13;;;;;;;;;;6222332;23;20371;-56
2022/05/11 03:52:29;;;;;;;7.40;6.40;;;;;;;;;;6238608;23;20488;-57
2022/05/11 03:55:05;;;;;;;7.50;6.13;;;;;;;;;;6214926;23;20643;-58
2022/05/11 03:57:33;;;;;;;6.37;5.73;;;;;;;;;;6235554;22;20401;-56
2022/05/11 04:00:00;;;;;;;10.90;6.90;;;;;;;;;;6238958;22;20375;-56
2022/05/11 04:02:26;;;;;;;6.57;5.87;;;;;;;;;;6237126;23;20394;-55
2022/05/11 04:05:09;;;;;;;6.67;5.73;;;;;;;;;;6235890;23;20374;-57
2022/05/11 04:07:36;;;;;;;7.57;6.27;;;;;;;;;;6234049;22;20533;-57
2022/05/11 04:13:09;;;;;;;9.43;6.33;;;;;;;;;;6213610;23;20397;-56
2022/05/11 04:15:50;;;;;;;6.87;5.53;;;;;;;;;;6212475;23;20492;-56
2022/05/11 04:18:20;;;;;;;6.83;6.13;;;;;;;;;;6234185;23;20779;-56
2022/05/11 04:20:56;;;;;;;8.30;5.73;;;;;;;;;;6198511;23;20378;-55
2022/05/11 04:23:23;;;;;;;7.13;5.57;;;;;;;;;;6238471;23;20809;-55
2022/05/11 04:25:54;;;;;;;7.57;5.47;;;;;;;;;;6212524;23;20519;-56
2022/05/11 04:28:22;;;;;;;6.97;6.27;;;;;;;;;;6238486;22;20664;-56
2022/05/11 04:30:48;;;;;;;5.87;5.27;;;;;;;;;;6236243;22;20385;-56
2022/05/11 04:33:14;;;;;;;5.70;5.20;;;;;;;;;;6240178;23;20394;-56
2022/05/11 04:35:50;;;;;;;6.43;5.27;;;;;;;;;;6229880;23;20155;-56
2022/05/11 04:38:16;;;;;;;5.53;5.00;;;;;;;;;;6239128;22;20412;-56
2022/05/11 04:40:43;;;;;;;5.77;5.27;;;;;;;;;;6216455;23;20536;-56
2022/05/11 04:43:09;;;;;;;6.67;5.93;;;;;;;;;;6236633;22;20377;-54
2022/05/11 04:45:47;;;;;;;5.70;5.10;;;;;;;;;;6228254;23;20378;-56
2022/05/11 04:48:14;;;;;;;5.53;5.00;;;;;;;;;;6236261;23;20436;-54
2022/05/11 04:50:42;;;;;;;5.50;5.00;;;;;;;;;;6236291;23;20374;-55
2022/05/11 04:53:08;;;;;;;5.47;4.97;;;;;;;;;;6239268;23;20358;-54
2022/05/11 04:55:43;;;;;;;6.10;4.60;;;;;;;;;;6225420;23;20442;-56
2022/05/11 04:58:09;;;;;;;6.60;4.93;;;;;;;;;;6237742;22;20827;-54
2022/05/11 05:01:03;;;;;;;5.30;4.80;;;;;;;;;;6236970;23;20374;-56
2022/05/11 05:03:32;;;;;;;5.27;4.53;;;;;;;;;;6236434;22;20382;-56
2022/05/11 05:06:18;;;;;;;5.80;5.10;;;;;;;;;;6237449;23;20393;-56
2022/05/11 05:08:51;;;;;;;6.93;4.73;;;;;;;;;;6235119;23;20437;-57
2022/05/11 05:11:30;;;;;;;6.30;4.60;;;;;;;;;;6238230;22;20382;-54
2022/05/11 05:13:57;;;;;;;5.23;4.73;;;;;;;;;;6240435;22;20366;-55
2022/05/11 05:16:41;;;;;;;6.43;4.63;;;;;;;;;;6244840;23;20404;-57
2022/05/11 05:19:09;;;;;;;5.27;4.30;;;;;;;;;;6239249;22;20373;-56
2022/05/11 05:21:38;;;;;;;7.70;4.17;;;;;;;;;;6236020;22;20984;-56
2022/05/11 05:24:04;;;;;;;5.33;4.37;;;;;;;;;;6239975;23;20378;-56
2022/05/11 05:26:31;;;;;;;6.33;4.93;;;;;;;;;;6221710;23;20389;-59
2022/05/11 05:32:09;;;;;;;6.10;4.57;;;;;;;;;;6234024;23;20381;-56
2022/05/11 05:34:45;;;;;;;5.20;4.70;;;;;;;;;;6239529;22;20754;-56
2022/05/11 05:37:43;;;;;;;5.90;4.60;;;;;;;;;;6238252;23;20406;-57
2022/05/11 05:40:14;;;;;;;5.40;4.40;;;;;;;;;;6241059;22;20936;-55
2022/05/11 05:42:45;;;;;;;5.33;4.83;;;;;;;;;;6226850;23;20370;-56
2022/05/11 05:45:11;;;;;;;5.40;4.50;;;;;;;;;;6238994;23;20385;-55
2022/05/11 05:47:43;;;;;;;5.23;4.70;;;;;;;;;;6224650;23;20430;-57
2022/05/11 05:50:09;;;;;;;4.77;4.37;;;;;;;;;;6240071;23;20381;-57
2022/05/11 05:52:35;;;;;;;7.07;5.23;;;;;;;;;;6235702;23;20386;-57
2022/05/11 05:55:02;;;;;;;5.40;4.90;;;;;;;;;;6241663;23;20393;-57
2022/05/11 05:57:30;;;;;;;5.83;4.47;;;;;;;;;;6224321;22;20777;-59
2022/05/11 05:59:57;;;;;;;6.10;5.10;;;;;;;;;;6237743;22;20397;-57
2022/05/11 06:02:57;;;;;;;5.03;4.63;;;;;;;;;;6236111;23;20485;-57
2022/05/11 06:05:31;;;;;;;7.47;5.67;;;;;;;;;;6230494;23;20385;-56
2022/05/11 06:07:57;;;;;;;5.00;4.50;;;;;;;;;;6220945;23;20812;-56
2022/05/11 06:10:25;;;;;;;7.33;4.67;;;;;;;;;;6241155;23;20370;-56
2022/05/11 06:12:52;;;;;;;5.70;5.03;;;;;;;;;;6233180;23;20385;-56
2022/05/11 06:15:18;;;;;;;6.03;5.07;;;;;;;;;;6214316;23;20410;-56
2022/05/11 06:17:57;;;;;;;8.30;4.83;;;;;;;;;;6220604;23;20778;-56
2022/05/11 06:20:23;;;;;;;5.60;5.00;;;;;;;;;;6238731;23;21201;-54
2022/05/11 06:22:50;;;;;;;6.33;5.07;;;;;;;;;;6235231;23;20371;-54
2022/05/11 06:25:18;;;;;;;5.90;4.53;;;;;;;;;;6240013;22;20381;-56
2022/05/11 06:27:44;;;;;;;7.67;4.47;;;;;;;;;;6220317;22;20631;-54
2022/05/11 06:30:11;;;;;;;5.47;4.77;;;;;;;;;;6216494;23;20404;-57
2022/05/11 06:32:45;;;;;;;7.93;5.53;;;;;;;;;;6222309;23;20708;-55
2022/05/11 06:35:18;;;;;;;5.67;5.17;;;;;;;;;;6247099;22;20393;-55
2022/05/11 06:40:48;;;;;;;8.00;7.20;;;;;;;;;;6221578;23;20431;-57
2022/05/11 06:43:26;;;;;;;6.00;5.40;;;;;;;;;;6223258;22;20664;-56
2022/05/11 06:45:54;;;;;;;6.00;5.40;;;;;;;;;;6232126;22;20677;-56
2022/05/11 06:48:21;;;;;;;6.13;5.53;;;;;;;;;;6216223;23;20843;-56
2022/05/11 06:50:48;;;;;;;6.80;5.63;;;;;;;;;;6231705;22;20891;-56
2022/05/11 06:59:24;;;;;;;8.30;7.50;;;;;;;;;;6202233;23;20380;-54
2022/05/11 07:01:50;;;;;;;6.73;6.13;;;;;;;;;;6209902;23;20377;-55
2022/05/11 07:04:16;;;;;;;6.50;5.90;;;;;;;;;;6231012;23;20370;-55
2022/05/11 07:06:42;;;;;;;5.97;5.47;;;;;;;;;;6216704;23;21096;-56
2022/05/11 07:09:09;;;;;;;7.87;5.50;;;;;;;;;;6224716;23;20148;-55
2022/05/11 07:14:20;;;;;;;5.23;4.73;;;;;;;;;;6233492;23;20377;-56
2022/05/11 07:16:46;;;;;;;5.90;4.70;;;;;;;;;;6204841;23;20916;-56
2022/05/11 07:19:13;;;;;;;6.33;4.90;;;;;;;;;;6232920;23;20382;-55
2022/05/11 07:21:39;;;;;;;4.90;4.50;;;;;;;;;;6224089;23;20152;-55
2022/05/11 07:24:06;;;;;;;5.30;4.80;;;;;;;;;;6228374;23;20448;-55
2022/05/11 07:26:34;;;;;;;6.67;4.80;;;;;;;;;;6216954;23;20394;-56
2022/05/11 07:29:01;;;;;;;6.37;4.37;;;;;;;;;;6232340;23;20385;-55
2022/05/11 07:31:29;;;;;;;5.03;4.57;;;;;;;;;;6225509;22;20378;-55
2022/05/11 07:33:55;;;;;;;5.67;4.80;;;;;;;;;;6232473;23;20402;-55
2022/05/11 07:36:25;;;;;;;6.90;4.53;;;;;;;;;;6205285;23;20737;-56
2022/05/11 07:38:54;;;;;;;5.23;4.73;;;;;;;;;;6227879;23;20394;-56
2022/05/11 07:41:20;;;;;;;5.40;4.90;;;;;;;;;;6225548;22;20750;-55
2022/05/11 07:43:47;;;;;;;4.93;4.43;;;;;;;;;;6229985;23;20379;-55
2022/05/11 07:46:36;;;;;;;4.43;4.03;;;;;;;;;;6219267;23;20416;-54
2022/05/11 07:49:05;;;;;;;4.80;4.30;;;;;;;;;;6230477;22;20925;-55
2022/05/11 07:51:32;;;;;;;7.43;4.30;;;;;;;;;;6216881;23;20473;-55
2022/05/11 07:53:58;;;;;;;6.20;4.70;;;;;;;;;;6231723;23;20432;-56
2022/05/11 08:01:55;;;;;;;5.60;5.10;;;;;;;;;;6226544;23;20385;-56
2022/05/11 08:04:21;;;;;;;5.00;4.50;;;;;;;;;;6231904;23;20383;-57
2022/05/11 08:06:47;;;;;;;8.00;4.70;;;;;;;;;;6193462;23;20386;-56
2022/05/11 08:09:13;;;;;;;6.90;4.67;;;;;;;;;;6231120;23;20857;-55
2022/05/11 08:11:55;;;;;;;5.37;4.50;;;;;;;;;;6207976;22;20445;-56
2022/05/11 08:14:25;;;;;;;7.20;4.30;;;;;;;;;;6230584;22;20506;-56
2022/05/11 08:16:54;;;;;;;8.27;4.63;;;;;;;;;;6211070;23;20370;-56
2022/05/11 08:19:20;;;;;;;5.00;4.50;;;;;;;;;;6229197;23;20529;-55
2022/05/11 08:21:47;;;;;;;5.10;4.40;;;;;;;;;;6216007;23;20366;-56
2022/05/11 08:24:13;;;;;;;5.17;4.60;;;;;;;;;;6228069;23;20378;-55
2022/05/11 08:26:41;;;;;;;6.80;3.85;;;;;;;;;;6216208;23;20396;-57
2022/05/11 08:29:08;;;;;;;5.17;4.67;;;;;;;;;;6228392;23;20390;-56
2022/05/11 08:34:36;;;;;;;6.60;4.90;;;;;;;;;;6166345;23;20988;-56
2022/05/11 08:37:02;;;;;;;6.33;4.80;;;;;;;;;;6213456;23;20761;-55
2022/05/11 08:39:28;;;;;;;5.30;4.37;;;;;;;;;;6228592;23;20370;-56
2022/05/11 08:41:55;;;;;;;4.80;4.30;;;;;;;;;;6222428;23;20674;-56
2022/05/11 08:44:23;;;;;;;5.00;4.60;;;;;;;;;;6231120;22;20151;-57
2022/05/11 08:46:59;;;;;;;5.53;4.97;;;;;;;;;;6180757;23;20951;-55
2022/05/11 08:49:40;;;;;;;5.10;4.60;;;;;;;;;;6225766;22;20394;-57
2022/05/11 08:52:27;;;;;;;7.87;4.47;;;;;;;;;;6187958;23;20437;-55
2022/05/11 08:54:56;;;;;;;5.57;4.67;;;;;;;;;;6228695;22;20473;-57
2022/05/11 08:57:23;;;;;;;6.63;5.57;;;;;;;;;;6208265;23;20993;-55
2022/05/11 08:59:49;;;;;;;6.47;5.17;;;;;;;;;;6208483;23;20454;-56
2022/05/11 09:02:16;;;;;;;5.70;5.20;;;;;;;;;;6226451;23;20388;-56
2022/05/11 09:04:52;;;;;;;8.53;5.00;;;;;;;;;;6211519;23;20382;-54
2022/05/11 09:07:18;;;;;;;8.63;5.13;;;;;;;;;;6223777;23;20434;-56
2022/05/11 09:09:46;;;;;;;7.77;5.50;;;;;;;;;;6228024;23;20370;-56
2022/05/11 09:12:13;;;;;;;5.07;4.67;;;;;;;;;;6217986;23;20861;-60
2022/05/11 09:14:49;;;;;;;8.23;5.17;;;;;;;;;;6227800;23;20433;-56
2022/05/11 09:17:21;;;;;;;6.70;6.00;;;;;;;;;;6218857;23;20463;-55
2022/05/11 09:22:58;;;;;;;5.80;5.30;;;;;;;;;;6199180;23;20399;-57
2022/05/11 09:25:45;;;;;;;5.40;5.00;;;;;;;;;;6195353;22;20844;-55
2022/05/11 09:28:24;;;;;;;6.03;5.43;;;;;;;;;;6205672;23;20639;-56
2022/05/11 09:31:09;;;;;;;5.50;5.00;;;;;;;;;;6213606;22;20390;-58
2022/05/11 09:33:39;;;;;;;6.07;5.47;;;;;;;;;;6226563;23;20405;-58
2022/05/11 09:39:13;;;;;;;6.90;6.03;;;;;;;;;;6230344;23;20420;-56
2022/05/11 09:41:43;;;;;;;7.37;5.37;;;;;;;;;;6213872;23;20393;-56
2022/05/11 09:44:26;;;;;;;5.90;5.30;;;;;;;;;;6230280;23;20389;-57
2022/05/11 09:46:54;;;;;;;6.03;5.53;;;;;;;;;;6215404;23;20394;-56
2022/05/11 09:49:20;;;;;;;7.03;6.43;;;;;;;;;;6231232;22;20401;-56
2022/05/11 09:51:46;;;;;;;5.80;5.27;;;;;;;;;;6215714;23;21206;-58
2022/05/11 09:54:19;;;;;;;14.03;6.57;;;;;;;;;;6231154;23;20416;-58
2022/05/11 09:56:56;;;;;;;6.40;5.77;;;;;;;;;;6215483;23;20378;-54
2022/05/11 09:59:23;;;;;;;8.57;5.50;;;;;;;;;;6227497;23;20513;-55
2022/05/11 10:01:49;;;;;;;7.03;5.17;;;;;;;;;;6218996;23;20378;-55
2022/05/11 10:04:15;;;;;;;8.60;6.23;;;;;;;;;;6229393;23;20869;-55
2022/05/11 10:06:50;;;;;;;5.80;5.30;;;;;;;;;;6216626;23;20390;-56
2022/05/11 10:09:28;;;;;;;7.30;5.97;;;;;;;;;;6230560;23;20442;-58
2022/05/11 10:11:54;;;;;;;6.60;5.90;;;;;;;;;;6212252;22;20378;-59
2022/05/11 10:23:19;;;;;;;9.33;5.80;;;;;;;;;;6206361;23;20397;-61
2022/05/11 10:26:13;;;;;;;5.60;5.10;;;;;;;;;;6231140;22;20374;-56
2022/05/11 10:28:52;;;;;;;7.23;5.23;;;;;;;;;;6231714;22;20879;-56
2022/05/11 10:31:29;;;;;;;5.53;5.03;;;;;;;;;;6228058;23;20382;-55
2022/05/11 10:34:15;;;;;;;5.60;5.13;;;;;;;;;;6207190;23;20512;-56
2022/05/11 10:37:00;;;;;;;11.97;5.03;;;;;;;;;;6222324;22;20390;-56
2022/05/11 10:39:26;;;;;;;5.73;4.77;;;;;;;;;;6236188;23;21029;-56
2022/05/11 10:42:14;;;;;;;8.97;5.27;;;;;;;;;;6223386;22;20634;-56
2022/05/11 10:47:51;;;;;;;4.90;4.43;;;;;;;;;;6218414;23;20445;-56
2022/05/11 10:50:48;;;;;;;6.87;5.10;;;;;;;;;;6232478;23;20436;-58
2022/05/11 10:53:20;;;;;;;5.30;4.80;;;;;;;;;;6258928;22;20394;-57
2022/05/11 10:56:23;;;;;;;6.50;5.30;;;;;;;;;;6238964;23;20401;-57
2022/05/11 10:59:08;;;;;;;7.30;4.57;;;;;;;;;;6234820;22;20382;-55
2022/05/11 11:01:40;;;;;;;5.27;4.77;;;;;;;;;;6214236;22;20381;-57
2022/05/11 11:04:17;;;;;;;5.87;4.23;;;;;;;;;;6232770;22;20371;-56
2022/05/11 11:07:11;;;;;;;4.93;4.53;;;;;;;;;;6217221;23;20444;-55
2022/05/11 11:09:48;;;;;;;5.73;5.13;;;;;;;;;;6231024;23;20880;-56
2022/05/11 11:12:31;;;;;;;5.07;4.57;;;;;;;;;;6227393;23;20480;-56
2022/05/11 11:15:34;;;;;;;6.10;4.80;;;;;;;;;;6229449;23;20741;-57
2022/05/11 11:18:20;;;;;;;4.83;4.43;;;;;;;;;;6223941;23;20471;-55
2022/05/11 11:21:12;;;;;;;4.40;4.03;;;;;;;;;;6228512;23;20366;-55
2022/05/11 11:23:40;;;;;;;7.20;4.17;;;;;;;;;;6232318;22;20477;-56
2022/05/11 11:26:11;;;;;;;5.00;3.70;;;;;;;;;;6230296;23;20661;-56
2022/05/11 11:28:40;;;;;;;5.30;4.80;;;;;;;;;;6231818;22;20442;-56
2022/05/11 11:34:12;;;;;;;4.90;4.20;;;;;;;;;;6230543;23;20727;-56
2022/05/11 11:36:40;;;;;;;5.87;5.30;;;;;;;;;;6212950;22;20496;-56
2022/05/11 11:39:09;;;;;;;5.47;4.67;;;;;;;;;;6230789;22;20705;-57
2022/05/11 11:41:43;;;;;;;5.33;4.83;;;;;;;;;;6192284;23;20386;-57
2022/05/11 11:44:23;;;;;;;5.70;5.20;;;;;;;;;;6232287;23;20374;-56
2022/05/11 11:46:57;;;;;;;5.20;4.70;;;;;;;;;;6224910;22;20404;-56
2022/05/11 11:49:27;;;;;;;4.93;4.53;;;;;;;;;;6210463;23;20394;-56
2022/05/11 11:52:21;;;;;;;5.03;4.63;;;;;;;;;;6232052;22;20370;-57
2022/05/11 11:55:02;;;;;;;7.63;4.67;;;;;;;;;;6219821;23;20420;-56
2022/05/11 11:57:52;;;;;;;7.33;4.37;;;;;;;;;;6231404;22;20447;-57
2022/05/11 12:00:37;;;;;;;5.30;4.00;;;;;;;;;;6228253;22;20474;-57
2022/05/11 12:03:41;;;;;;;5.73;5.07;;;;;;;;;;6222763;23;20385;-57
2022/05/11 12:17:48;;;;;;;4.40;4.00;;;;;;;;;;6228851;23;20961;-56
2022/05/11 12:20:20;;;;;;;4.93;4.43;;;;;;;;;;6230817;23;20394;-57
2022/05/11 12:23:20;;;;;;;5.97;3.80;;;;;;;;;;6218983;23;20373;-57
2022/05/11 12:25:56;;;;;;;4.73;4.03;;;;;;;;;;6228998;22;20831;-55
2022/05/11 12:28:41;;;;;;;5.10;3.77;;;;;;;;;;6209842;23;20430;-56
2022/05/11 12:31:07;;;;;;;4.13;3.73;;;;;;;;;;6230639;23;20783;-56
2022/05/11 12:33:42;;;;;;;8.67;4.10;;;;;;;;;;6224368;23;20389;-56
2022/05/11 12:36:09;;;;;;;3.77;3.47;;;;;;;;;;6232429;22;20489;-56
2022/05/11 12:38:43;;;;;;;4.33;3.93;;;;;;;;;;6198840;23;20720;-57
2022/05/11 12:41:13;;;;;;;6.23;4.13;;;;;;;;;;6214330;23;20427;-57
2022/05/11 12:43:40;;;;;;;3.73;3.33;;;;;;;;;;6210252;23;20408;-57
2022/05/11 12:46:31;;;;;;;5.00;3.17;;;;;;;;;;6189397;22;20765;-59
2022/05/11 12:49:14;;;;;;;6.00;3.47;;;;;;;;;;6220277;23;20506;-56
2022/05/11 12:51:42;;;;;;;5.90;3.33;;;;;;;;;;6203926;22;20432;-55
2022/05/11 12:54:10;;;;;;;4.27;3.87;;;;;;;;;;6232024;23;21005;-56
2022/05/11 12:56:49;;;;;;;8.13;4.67;;;;;;;;;;6229053;22;20375;-58
2022/05/11 12:59:23;;;;;;;6.23;4.03;;;;;;;;;;6205561;23;20682;-57
2022/05/11 13:02:08;;;;;;;4.33;3.97;;;;;;;;;;6212023;22;20374;-56
2022/05/11 13:04:35;;;;;;;4.67;3.77;;;;;;;;;;6228743;23;20460;-57
2022/05/11 13:07:02;;;;;;;3.97;3.57;;;;;;;;;;6222269;23;20378;-58
2022/05/11 13:09:46;;;;;;;4.00;3.60;;;;;;;;;;6231025;23;20394;-58
2022/05/11 13:12:14;;;;;;;4.63;4.10;;;;;;;;;;6197477;23;20905;-57
2022/05/11 13:14:59;;;;;;;3.90;3.47;;;;;;;;;;6229508;23;20408;-57
2022/05/11 13:17:49;;;;;;;6.23;3.63;;;;;;;;;;6220132;22;20433;-57
2022/05/11 13:20:23;;;;;;;4.17;3.77;;;;;;;;;;6217029;22;20460;-58
2022/05/11 13:22:50;;;;;;;6.63;3.77;;;;;;;;;;6206798;22;20378;-56
2022/05/11 13:25:36;;;;;;;4.80;3.87;;;;;;;;;;6226573;23;20366;-58
2022/05/11 13:28:15;;;;;;;4.17;3.50;;;;;;;;;;6211728;22;20385;-58
2022/05/11 13:30:57;;;;;;;6.20;3.30;;;;;;;;;;6229017;23;20792;-58
2022/05/11 13:33:40;;;;;;;4.23;3.30;;;;;;;;;;6217391;22;20944;-58
2022/05/11 13:36:10;;;;;;;4.40;3.50;;;;;;;;;;6211912;22;20897;-58
2022/05/11 13:38:36;;;;;;;4.00;3.60;;;;;;;;;;6214306;22;20530;-59
2022/05/11 13:41:30;;;;;;;3.90;3.50;;;;;;;;;;6220218;23;20927;-60
2022/05/11 13:44:13;;;;;;;4.60;3.40;;;;;;;;;;6228245;23;20152;-59
2022/05/11 13:49:33;;;;;;;4.30;3.90;;;;;;;;;;6229593;23;20474;-59
2022/05/11 13:52:02;;;;;;;4.23;3.80;;;;;;;;;;6226414;23;20744;-58
2022/05/11 13:54:37;;;;;;;3.90;3.60;;;;;;;;;;6204861;23;20390;-58
2022/05/11 13:57:41;;;;;;;7.47;3.40;;;;;;;;;;6224806;23;20543;-59
2022/05/11 14:00:26;;;;;;;5.07;4.10;;;;;;;;;;6216785;22;20398;-58
2022/05/11 14:02:55;;;;;;;4.43;3.30;;;;;;;;;;6228660;22;20449;-58
2022/05/11 14:05:21;;;;;;;8.33;3.47;;;;;;;;;;6229477;23;20421;-61
2022/05/11 14:07:47;;;;;;;4.50;3.80;;;;;;;;;;6200322;23;20390;-58
2022/05/11 14:10:14;;;;;;;4.70;4.00;;;;;;;;;;6224892;23;20817;-58
2022/05/11 14:12:40;;;;;;;4.90;4.33;;;;;;;;;;6221919;23;20477;-58
2022/05/11 14:15:06;;;;;;;5.37;3.47;;;;;;;;;;6225797;23;20860;-59
2022/05/11 14:17:46;;;;;;;4.70;4.27;;;;;;;;;;6201970;23;20191;-59
2022/05/11 14:20:23;;;;;;;4.57;3.80;;;;;;;;;;6231111;22;20502;-58
2022/05/11 14:22:49;;;;;;;9.23;4.17;;;;;;;;;;6226552;22;20378;-59
2022/05/11 14:25:15;;;;;;;3.93;3.53;;;;;;;;;;6230297;23;20382;-59
2022/05/11 14:27:41;;;;;;;4.53;3.83;;;;;;;;;;6211344;23;21117;-58
2022/05/11 14:30:08;;;;;;;4.27;3.57;;;;;;;;;;6230124;22;20382;-58
2022/05/11 14:32:36;;;;;;;5.80;3.63;;;;;;;;;;6212210;22;20366;-59
2022/05/11 14:35:02;;;;;;;3.53;3.23;;;;;;;;;;6225762;23;20422;-58
2022/05/11 14:37:29;;;;;;;4.87;3.43;;;;;;;;;;6209664;23;20417;-57
2022/05/11 14:39:56;;;;;;;3.83;3.30;;;;;;;;;;6232605;22;20374;-57
2022/05/11 14:42:23;;;;;;;4.07;3.53;;;;;;;;;;6224959;22;20453;-59
2022/05/11 14:44:49;;;;;;;3.40;3.10;;;;;;;;;;6224700;23;20396;-57
2022/05/11 14:47:15;;;;;;;3.97;3.53;;;;;;;;;;6202387;23;20877;-59
2022/05/11 14:49:44;;;;;;;7.63;3.90;;;;;;;;;;6227836;23;20381;-58
2022/05/11 14:55:13;;;;;;;4.80;4.37;;;;;;;;;;6206251;23;20369;-58
2022/05/11 15:03:09;;;;;;;4.40;4.00;;;;;;;;;;6209353;23;20929;-59
2022/05/11 15:05:38;;;;;;;4.40;3.63;;;;;;;;;;6233226;23;20374;-58
2022/05/11 15:08:10;;;;;;;6.90;5.30;;;;;;;;;;6182315;23;20374;-58
2022/05/11 15:10:38;;;;;;;4.37;4.00;;;;;;;;;;6243092;22;20450;-60
2022/05/11 15:15:49;;;;;;;5.47;3.67;;;;;;;;;;6197786;23;21160;-57
2022/05/11 15:18:16;;;;;;;3.93;3.53;;;;;;;;;;6221872;23;20430;-57
2022/05/11 15:20:55;;;;;;;4.57;3.60;;;;;;;;;;6218628;23;20374;-59
2022/05/11 15:23:21;;;;;;;4.93;3.97;;;;;;;;;;6226834;23;20381;-58
2022/05/11 15:28:51;;;;;;;4.23;3.80;;;;;;;;;;6202171;23;20404;-57
2022/05/11 15:31:17;;;;;;;4.10;3.70;;;;;;;;;;6226918;23;21255;-58
2022/05/11 15:33:43;;;;;;;4.40;4.10;;;;;;;;;;6207085;23;20482;-57
2022/05/11 15:36:10;;;;;;;4.93;3.70;;;;;;;;;;6233245;23;20404;-59
2022/05/11 15:38:46;;;;;;;4.80;3.60;;;;;;;;;;6218078;23;20454;-56
2022/05/11 15:41:14;;;;;;;6.30;4.20;;;;;;;;;;6233082;22;20374;-57
2022/05/11 15:43:40;;;;;;;5.17;3.80;;;;;;;;;;6217564;23;20927;-57
2022/05/11 15:46:27;;;;;;;4.20;3.60;;;;;;;;;;6239548;23;20370;-56
2022/05/11 15:48:55;;;;;;;3.93;3.53;;;;;;;;;;6217814;22;20541;-57
2022/05/11 15:51:30;;;;;;;6.70;3.40;;;;;;;;;;6235509;23;20440;-57
2022/05/11 15:53:56;;;;;;;6.50;3.70;;;;;;;;;;6229105;22;20366;-58
2022/05/11 15:56:22;;;;;;;3.87;3.50;;;;;;;;;;6229815;23;20846;-56
2022/05/11 15:58:48;;;;;;;4.27;3.47;;;;;;;;;;6209048;23;20428;-58
2022/05/11 16:01:15;;;;;;;5.60;3.20;;;;;;;;;;6238125;23;20911;-57
2022/05/11 16:03:42;;;;;;;3.30;2.97;;;;;;;;;;6215786;23;20569;-57
2022/05/11 16:06:08;;;;;;;3.97;2.63;;;;;;;;;;6205191;23;20391;-58
2022/05/11 16:08:34;;;;;;;4.47;3.50;;;;;;;;;;6215620;23;20383;-58
2022/05/11 16:11:17;;;;;;;4.43;3.10;;;;;;;;;;6240041;22;20477;-60
2022/05/11 16:13:44;;;;;;;4.93;3.17;;;;;;;;;;6227426;23;20405;-58
2022/05/11 16:16:11;;;;;;;6.40;3.10;;;;;;;;;;6208176;23;20441;-57
2022/05/11 16:21:21;;;;;;;3.70;3.40;;;;;;;;;;6236897;23;20401;-56
2022/05/11 16:23:47;;;;;;;8.03;3.40;;;;;;;;;;6217746;23;21043;-57
2022/05/11 16:26:26;;;;;;;4.83;3.20;;;;;;;;;;6235454;23;20151;-57
2022/05/11 16:28:57;;;;;;;3.53;3.03;;;;;;;;;;6238436;22;20496;-56
2022/05/11 16:31:23;;;;;;;3.97;3.30;;;;;;;;;;6234489;23;20442;-56
2022/05/11 16:33:57;;;;;;;3.77;3.40;;;;;;;;;;6241637;23;20667;-55
2022/05/11 16:36:25;;;;;;;4.13;3.20;;;;;;;;;;6190146;22;20678;-56
2022/05/11 16:38:52;;;;;;;5.90;3.70;;;;;;;;;;6228379;23;20467;-56
2022/05/11 16:41:32;;;;;;;3.27;2.63;;;;;;;;;;6229613;23;20797;-57